Time;durP1;ratioP1;P1;durP2;ratioP2;P2;SDS_P1;SDS_P2;PMS_P1;PMS_P2;Temp;Humidity;BMP_temperature;BMP_pressure;BME280_temperature;BME280_humidity;BME280_pressure;Samples;Min_cycle;Max_cycle;Signal;HPM_P1;HPM_P2
2023/01/16 00:01:21;;;;;;;13.40;3.03;;;5.60;99.90;;;;;;5071206;28;20176;-62
2023/01/16 00:03:47;;;;;;;17.63;3.03;;;5.50;99.90;;;;;;5071114;28;20291;-62
2023/01/16 00:06:13;;;;;;;14.80;2.80;;;5.60;99.90;;;;;;5071044;28;20255;-62
2023/01/16 00:08:38;;;;;;;12.17;3.17;;;5.50;99.90;;;;;;5070847;28;20203;-62
2023/01/16 00:11:04;;;;;;;17.73;3.17;;;5.50;99.90;;;;;;5062747;28;20208;-59
2023/01/16 00:13:30;;;;;;;8.87;2.53;;;5.50;99.90;;;;;;5069098;28;20181;-59
2023/01/16 00:15:55;;;;;;;19.17;3.17;;;5.50;99.90;;;;;;5070672;28;20671;-60
2023/01/16 00:18:21;;;;;;;16.30;3.00;;;5.60;99.90;;;;;;5070523;28;20701;-60
2023/01/16 00:20:48;;;;;;;14.10;3.00;;;5.40;99.90;;;;;;5070413;28;20191;-60
2023/01/16 00:23:14;;;;;;;13.47;2.97;;;5.70;99.90;;;;;;5070368;28;20177;-60
2023/01/16 00:25:43;;;;;;;15.80;3.10;;;5.40;99.90;;;;;;5070540;28;20184;-60
2023/01/16 00:28:11;;;;;;;15.03;3.50;;;5.30;99.90;;;;;;5070136;28;20221;-59
2023/01/16 00:30:36;;;;;;;22.30;3.43;;;5.50;99.90;;;;;;5069258;28;20177;-60
2023/01/16 00:33:03;;;;;;;13.90;2.63;;;5.40;99.90;;;;;;5070426;28;20184;-59
2023/01/16 00:35:28;;;;;;;10.37;2.83;;;5.30;99.90;;;;;;5068959;28;20176;-60
2023/01/16 00:37:54;;;;;;;12.33;2.60;;;5.30;99.90;;;;;;5070079;28;20192;-60
2023/01/16 00:40:20;;;;;;;21.50;2.83;;;5.30;99.90;;;;;;5069910;28;20184;-59
2023/01/16 00:42:45;;;;;;;11.43;2.77;;;5.30;99.90;;;;;;5070539;28;20207;-60
2023/01/16 00:45:11;;;;;;;21.17;3.40;;;5.30;99.90;;;;;;5070368;28;20208;-59
2023/01/16 00:47:37;;;;;;;16.63;2.93;;;5.20;99.90;;;;;;5070545;28;20644;-60
2023/01/16 00:50:03;;;;;;;15.93;3.10;;;5.20;99.90;;;;;;5070578;28;20647;-60
2023/01/16 00:52:29;;;;;;;17.07;2.80;;;5.20;99.90;;;;;;5070470;28;20164;-60
2023/01/16 00:54:55;;;;;;;12.23;2.80;;;5.20;99.90;;;;;;5070407;28;20195;-60
2023/01/16 00:57:21;;;;;;;15.23;2.90;;;;;;;;;;5070458;28;20179;-60
2023/01/16 00:59:46;;;;;;;15.93;3.10;;;5.10;99.90;;;;;;5070530;28;20635;-60
2023/01/16 01:02:13;;;;;;;22.60;2.63;;;5.20;99.90;;;;;;5070464;28;20179;-60
2023/01/16 01:04:38;;;;;;;11.77;2.80;;;4.80;99.90;;;;;;5064003;28;20232;-60
2023/01/16 01:07:04;;;;;;;18.73;2.57;;;5.10;99.90;;;;;;5068800;28;20216;-60
2023/01/16 01:09:30;;;;;;;21.70;2.70;;;5.10;99.90;;;;;;5070356;28;20172;-60
2023/01/16 01:11:58;;;;;;;13.07;2.13;;;5.10;99.90;;;;;;5052609;28;20177;-60
2023/01/16 01:14:25;;;;;;;14.90;2.40;;;5.10;99.90;;;;;;5053839;28;20694;-60
2023/01/16 01:16:51;;;;;;;17.30;2.50;;;5.30;99.90;;;;;;5074094;28;20184;-60
2023/01/16 01:19:16;;;;;;;16.30;2.60;;;5.10;99.90;;;;;;5074035;28;20633;-60
2023/01/16 01:21:42;;;;;;;20.13;2.13;;;5.20;99.90;;;;;;5074050;28;20176;-60
2023/01/16 01:24:08;;;;;;;14.13;2.23;;;5.10;99.90;;;;;;5073834;28;20204;-60
2023/01/16 01:26:34;;;;;;;17.70;2.53;;;5.30;99.90;;;;;;5074006;28;20183;-60
2023/01/16 01:29:00;;;;;;;12.77;2.40;;;5.10;99.90;;;;;;5073734;28;20530;-60
2023/01/16 01:31:26;;;;;;;15.53;2.40;;;5.00;99.90;;;;;;5073765;28;20176;-60
2023/01/16 01:33:51;;;;;;;14.23;2.10;;;5.10;99.90;;;;;;5073782;28;20177;-60
2023/01/16 01:36:17;;;;;;;17.33;2.13;;;5.10;99.90;;;;;;5073518;28;20176;-60
2023/01/16 01:38:43;;;;;;;20.00;2.37;;;5.10;99.90;;;;;;5073547;28;20247;-60
2023/01/16 01:41:13;;;;;;;14.53;2.37;;;5.10;99.90;;;;;;5073787;28;20180;-61
2023/01/16 01:43:50;;;;;;;11.43;2.13;;;4.70;99.90;;;;;;5073353;28;20257;-61
2023/01/16 01:46:27;;;;;;;14.20;2.50;;;5.10;99.90;;;;;;5073833;28;20650;-61
2023/01/16 01:49:05;;;;;;;12.60;2.40;;;5.10;99.90;;;;;;5073719;28;20180;-61
2023/01/16 01:51:36;;;;;;;12.23;2.30;;;5.10;99.90;;;;;;5073648;28;20176;-60
2023/01/16 01:54:12;;;;;;;11.77;2.27;;;5.10;99.90;;;;;;5073747;28;20174;-60
2023/01/16 01:56:38;;;;;;;17.17;2.90;;;5.10;99.90;;;;;;5073689;28;20172;-60
2023/01/16 01:59:11;;;;;;;14.53;2.50;;;5.10;99.90;;;;;;5054786;28;20172;-61
2023/01/16 02:01:37;;;;;;;18.80;3.00;;;5.10;99.90;;;;;;5067848;28;20232;-60
2023/01/16 02:04:09;;;;;;;15.57;2.57;;;5.10;99.90;;;;;;5073363;28;20210;-60
2023/01/16 02:06:47;;;;;;;12.53;3.10;;;5.00;99.90;;;;;;5073242;28;20168;-60
2023/01/16 02:09:15;;;;;;;18.93;3.13;;;5.00;99.90;;;;;;5073424;28;20237;-60
2023/01/16 02:11:54;;;;;;;16.93;2.53;;;5.00;99.90;;;;;;5073410;28;20213;-61
2023/01/16 02:14:21;;;;;;;20.87;2.70;;;5.00;99.90;;;;;;5073017;28;20168;-61
2023/01/16 02:20:09;;;;;;;11.60;2.90;;;5.00;99.90;;;;;;5072730;28;20218;-60
2023/01/16 02:23:12;;;;;;;18.07;2.83;;;5.00;99.90;;;;;;5065406;28;20205;-61
2023/01/16 02:25:37;;;;;;;19.13;3.47;;;4.90;99.90;;;;;;5064045;28;20614;-61
2023/01/16 02:28:24;;;;;;;12.47;2.87;;;4.60;99.90;;;;;;5072414;28;20208;-61
2023/01/16 02:31:29;;;;;;;20.77;3.10;;;4.90;99.90;;;;;;5072422;28;20185;-61
2023/01/16 02:34:24;;;;;;;11.23;2.50;;;4.80;99.90;;;;;;5058674;28;20169;-61
2023/01/16 02:37:01;;;;;;;22.30;3.20;;;4.70;99.90;;;;;;5072625;28;20184;-60
2023/01/16 02:40:13;;;;;;;15.33;2.83;;;6.20;99.90;;;;;;5072209;28;20234;-61
2023/01/16 02:42:42;;;;;;;14.50;2.13;;;4.80;99.90;;;;;;5046946;28;20273;-61
2023/01/16 02:45:11;;;;;;;12.80;2.50;;;4.80;99.90;;;;;;5072086;28;20718;-61
2023/01/16 02:47:56;;;;;;;17.83;2.70;;;4.80;99.90;;;;;;5072172;28;20258;-61
2023/01/16 02:50:56;;;;;;;14.37;2.40;;;4.80;99.90;;;;;;5072442;28;20259;-61
2023/01/16 02:53:45;;;;;;;21.43;2.73;;;4.90;99.90;;;;;;5071900;28;20309;-61
2023/01/16 02:56:14;;;;;;;16.00;2.37;;;4.90;99.90;;;;;;5064777;28;20267;-61
2023/01/16 02:58:44;;;;;;;14.33;2.20;;;4.90;99.90;;;;;;5071422;28;20173;-61
2023/01/16 03:01:11;;;;;;;17.73;2.47;;;4.90;99.90;;;;;;5071676;28;20388;-61
2023/01/16 03:03:39;;;;;;;12.00;1.90;;;5.30;99.90;;;;;;5062578;28;20235;-61
2023/01/16 03:06:19;;;;;;;14.83;2.93;;;4.70;99.90;;;;;;5067781;28;20226;-61
2023/01/16 03:08:59;;;;;;;16.07;2.20;;;5.00;99.90;;;;;;5071306;28;20226;-61
2023/01/16 03:11:28;;;;;;;10.27;2.47;;;5.00;99.90;;;;;;5062023;28;20185;-60
2023/01/16 03:14:26;;;;;;;18.80;2.47;;;5.00;99.90;;;;;;5072102;28;20654;-60
2023/01/16 03:17:05;;;;;;;15.67;2.40;;;5.00;99.90;;;;;;5007554;28;20272;-59
2023/01/16 03:20:07;;;;;;;23.27;2.70;;;5.00;99.90;;;;;;5060167;28;20172;-61
2023/01/16 03:22:41;;;;;;;14.03;2.30;;;5.10;99.90;;;;;;5071904;28;20165;-61
2023/01/16 03:25:45;;;;;;;13.90;2.27;;;4.90;99.90;;;;;;5071897;28;20209;-62
2023/01/16 03:28:42;;;;;;;15.67;1.77;;;5.00;99.90;;;;;;5071761;28;20187;-61
2023/01/16 03:31:26;;;;;;;21.73;2.00;;;5.40;99.90;;;;;;5033808;28;20184;-62
2023/01/16 03:34:17;;;;;;;7.33;1.63;;;4.90;99.90;;;;;;5071469;28;20180;-61
2023/01/16 03:37:04;;;;;;;13.17;1.80;;;5.10;99.90;;;;;;5071257;28;20516;-61
2023/01/16 03:39:41;;;;;;;15.20;1.80;;;5.10;99.90;;;;;;5071305;28;20192;-61
2023/01/16 03:42:23;;;;;;;18.20;2.40;;;5.10;99.90;;;;;;5071481;28;20251;-61
2023/01/16 03:44:55;;;;;;;15.30;1.63;;;5.10;99.90;;;;;;5070511;28;20212;-61
2023/01/16 03:47:27;;;;;;;18.27;2.20;;;5.10;99.90;;;;;;5053436;28;20591;-61
2023/01/16 03:49:58;;;;;;;13.00;1.67;;;5.40;99.90;;;;;;5065856;28;20191;-62
2023/01/16 03:52:30;;;;;;;9.10;1.33;;;5.10;99.90;;;;;;5069619;28;20165;-62
2023/01/16 03:55:16;;;;;;;13.00;1.93;;;5.20;99.90;;;;;;5063258;28;20180;-61
2023/01/16 03:57:57;;;;;;;9.47;1.87;;;5.10;99.90;;;;;;5052362;28;20180;-61
2023/01/16 04:00:26;;;;;;;17.10;1.87;;;5.10;99.90;;;;;;5071044;28;20261;-61
2023/01/16 04:03:06;;;;;;;10.33;1.30;;;5.00;99.90;;;;;;5071020;28;20180;-61
2023/01/16 04:05:47;;;;;;;6.40;1.30;;;5.00;99.90;;;;;;5071054;28;20235;-61
2023/01/16 04:08:20;;;;;;;5.23;1.30;;;5.00;99.90;;;;;;5056079;28;20173;-61
2023/01/16 04:10:49;;;;;;;7.33;1.37;;;5.00;99.90;;;;;;5070758;28;20184;-61
2023/01/16 04:13:20;;;;;;;8.20;1.37;;;4.90;99.90;;;;;;5070667;28;20183;-61
2023/01/16 04:15:50;;;;;;;6.83;1.50;;;4.90;99.90;;;;;;5070536;28;20172;-61
2023/01/16 04:18:15;;;;;;;9.57;1.20;;;5.00;99.90;;;;;;5070306;28;20559;-61
2023/01/16 04:20:45;;;;;;;9.37;1.37;;;5.00;99.90;;;;;;5070737;28;20245;-61
2023/01/16 04:23:12;;;;;;;10.43;1.60;;;5.00;99.90;;;;;;5070286;28;20325;-61
2023/01/16 04:25:38;;;;;;;5.67;1.20;;;4.90;99.90;;;;;;5070707;28;20244;-61
2023/01/16 04:28:04;;;;;;;11.70;1.63;;;4.90;99.90;;;;;;5070174;28;20607;-60
2023/01/16 04:30:29;;;;;;;9.87;1.60;;;4.90;99.90;;;;;;5070361;28;20176;-60
2023/01/16 04:32:55;;;;;;;8.87;1.37;;;5.00;99.90;;;;;;5070567;28;20546;-61
2023/01/16 04:35:21;;;;;;;11.80;1.60;;;4.90;99.90;;;;;;5070490;28;20182;-61
2023/01/16 04:37:46;;;;;;;7.03;1.30;;;4.80;99.90;;;;;;5070444;28;20208;-61
2023/01/16 04:40:12;;;;;;;8.13;1.57;;;4.80;99.90;;;;;;5070673;28;20276;-61
2023/01/16 04:42:38;;;;;;;9.20;1.17;;;4.80;99.90;;;;;;5070115;28;20192;-61
2023/01/16 04:45:04;;;;;;;14.43;1.30;;;4.80;99.90;;;;;;5062206;28;20208;-61
2023/01/16 04:47:30;;;;;;;5.30;1.73;;;4.80;99.90;;;;;;5062042;28;20226;-61
2023/01/16 04:49:55;;;;;;;5.87;1.13;;;4.80;99.90;;;;;;5068151;28;20208;-61
2023/01/16 04:52:21;;;;;;;6.50;1.00;;;4.80;99.90;;;;;;5063196;28;20209;-61
2023/01/16 04:54:47;;;;;;;4.17;1.07;;;4.80;99.90;;;;;;5070400;28;20618;-61
2023/01/16 04:57:12;;;;;;;8.30;1.23;;;4.80;99.90;;;;;;5069975;28;20176;-61
2023/01/16 04:59:38;;;;;;;2.47;0.80;;;4.70;99.90;;;;;;5069953;28;20267;-61
2023/01/16 05:02:03;;;;;;;6.00;0.93;;;4.80;99.90;;;;;;5070182;28;20182;-61
2023/01/16 05:04:29;;;;;;;7.07;1.00;;;6.80;99.90;;;;;;5069801;28;20240;-61
2023/01/16 05:06:55;;;;;;;8.47;1.30;;;4.70;99.90;;;;;;5069966;28;20195;-62
2023/01/16 05:09:20;;;;;;;4.53;1.30;;;4.60;99.90;;;;;;5069994;28;20184;-62
2023/01/16 05:11:46;;;;;;;5.33;1.33;;;4.50;99.90;;;;;;5070245;28;20707;-61
2023/01/16 05:14:11;;;;;;;3.20;0.80;;;4.60;99.90;;;;;;5069068;28;20509;-62
2023/01/16 05:16:41;;;;;;;4.03;1.00;;;4.60;99.90;;;;;;5070185;28;20257;-61
2023/01/16 05:19:07;;;;;;;3.67;0.97;;;4.80;99.90;;;;;;5069971;28;20284;-61
2023/01/16 05:21:33;;;;;;;2.60;0.90;;;4.40;99.90;;;;;;5070264;28;20173;-61
2023/01/16 05:23:59;;;;;;;5.10;1.00;;;4.60;99.90;;;;;;5069851;28;20208;-62
2023/01/16 05:26:24;;;;;;;3.73;1.03;;;4.60;99.90;;;;;;5070318;28;20180;-61
2023/01/16 05:28:50;;;;;;;4.27;1.27;;;4.60;99.90;;;;;;5069988;28;20195;-60
2023/01/16 05:31:16;;;;;;;1.90;0.73;;;4.60;99.90;;;;;;5068215;28;20630;-60
2023/01/16 05:33:42;;;;;;;4.63;0.90;;;4.60;99.90;;;;;;5069908;28;20185;-60
2023/01/16 05:36:08;;;;;;;5.40;0.90;;;4.60;99.90;;;;;;5069606;28;20700;-60
2023/01/16 05:38:33;;;;;;;4.00;1.00;;;4.70;99.90;;;;;;5069741;28;20258;-58
2023/01/16 05:40:59;;;;;;;4.90;0.90;;;4.70;99.90;;;;;;5061985;28;20192;-60
2023/01/16 05:43:25;;;;;;;4.27;0.90;;;4.70;99.90;;;;;;5063068;28;20234;-60
2023/01/16 05:45:51;;;;;;;3.43;0.80;;;4.30;99.90;;;;;;5063120;28;20195;-60
2023/01/16 05:48:17;;;;;;;6.00;1.10;;;4.70;99.90;;;;;;5068307;28;20180;-61
2023/01/16 05:50:42;;;;;;;7.23;1.03;;;5.00;99.90;;;;;;5070084;28;20180;-61
2023/01/16 05:53:08;;;;;;;4.23;0.87;;;4.80;99.90;;;;;;5069579;28;20204;-61
2023/01/16 05:55:44;;;;;;;3.33;0.80;;;4.70;99.90;;;;;;5069699;28;20176;-61
2023/01/16 05:58:11;;;;;;;6.30;0.80;;;4.70;99.90;;;;;;5053504;28;20184;-61
2023/01/16 06:00:38;;;;;;;5.20;0.70;;;4.70;99.90;;;;;;5053689;28;20611;-60
2023/01/16 06:03:04;;;;;;;3.70;0.83;;;4.80;99.90;;;;;;5073232;28;20594;-61
2023/01/16 06:05:30;;;;;;;3.00;0.83;;;4.80;99.90;;;;;;5073015;28;20219;-61
2023/01/16 06:07:56;;;;;;;3.87;0.53;;;4.80;99.90;;;;;;5072732;28;20183;-60
2023/01/16 06:10:23;;;;;;;3.17;0.50;;;4.70;99.90;;;;;;5073049;28;20259;-60
2023/01/16 06:12:49;;;;;;;2.47;0.70;;;4.70;99.90;;;;;;5072976;28;20181;-61
2023/01/16 06:15:15;;;;;;;1.77;0.50;;;4.60;99.90;;;;;;5072946;28;20285;-61
2023/01/16 06:17:40;;;;;;;3.17;0.70;;;4.70;99.90;;;;;;5054824;28;20228;-60
2023/01/16 06:20:06;;;;;;;2.97;0.80;;;4.60;99.90;;;;;;5072844;28;20173;-60
2023/01/16 06:22:32;;;;;;;2.10;0.50;;;4.60;99.90;;;;;;5072918;28;20219;-60
2023/01/16 06:24:58;;;;;;;1.00;0.40;;;4.60;99.90;;;;;;5073013;28;20623;-60
2023/01/16 06:27:23;;;;;;;2.97;0.60;;;4.50;99.90;;;;;;5072909;28;20165;-60
2023/01/16 06:29:49;;;;;;;3.77;0.70;;;4.60;99.90;;;;;;5072498;28;20631;-60
2023/01/16 06:32:16;;;;;;;0.90;0.53;;;4.60;99.90;;;;;;5072641;28;20169;-59
2023/01/16 06:34:42;;;;;;;1.17;0.47;;;4.70;99.90;;;;;;5072519;28;20189;-60
2023/01/16 06:37:08;;;;;;;2.50;0.73;;;4.70;99.90;;;;;;5065030;28;20395;-60
2023/01/16 06:39:34;;;;;;;2.63;0.70;;;4.80;99.90;;;;;;5072287;28;20180;-60
2023/01/16 06:42:00;;;;;;;2.60;0.80;;;;;;;;;;5064082;28;20242;-60
2023/01/16 06:44:26;;;;;;;1.93;0.60;;;4.90;99.90;;;;;;5069009;28;20231;-60
2023/01/16 06:46:51;;;;;;;2.07;0.60;;;4.90;99.90;;;;;;5072345;28;20196;-61
2023/01/16 06:49:17;;;;;;;0.93;0.40;;;5.00;99.90;;;;;;5072291;28;20181;-61
2023/01/16 06:51:43;;;;;;;1.20;0.40;;;5.00;99.90;;;;;;5071943;28;20181;-61
2023/01/16 06:54:09;;;;;;;1.07;0.50;;;5.00;99.90;;;;;;5071996;28;20168;-61
2023/01/16 06:56:35;;;;;;;0.77;0.53;;;5.10;99.90;;;;;;5072474;28;20224;-61
2023/01/16 06:59:01;;;;;;;0.73;0.20;;;5.10;99.90;;;;;;5072365;28;20200;-61
2023/01/16 07:01:27;;;;;;;1.47;0.70;;;5.10;99.90;;;;;;5072516;28;20215;-61
2023/01/16 07:03:52;;;;;;;1.40;0.40;;;5.10;99.90;;;;;;5071854;28;20211;-60
2023/01/16 07:06:18;;;;;;;1.63;0.57;;;5.00;99.90;;;;;;5070981;28;20534;-60
2023/01/16 07:08:44;;;;;;;2.97;0.60;;;4.90;99.90;;;;;;5070495;28;20204;-60
2023/01/16 07:11:10;;;;;;;1.80;0.40;;;4.90;99.90;;;;;;5071427;28;20248;-60
2023/01/16 07:13:35;;;;;;;0.63;0.30;;;5.00;99.90;;;;;;5072255;28;20204;-61
2023/01/16 07:24:19;;;;;;;1.13;0.60;;;4.80;99.90;;;;;;5071876;28;20269;-60
2023/01/16 07:26:48;;;;;;;3.23;0.50;;;4.90;99.90;;;;;;5071470;28;20251;-59
2023/01/16 07:29:13;;;;;;;1.40;0.40;;;5.00;99.90;;;;;;5071396;28;20183;-59
2023/01/16 07:31:40;;;;;;;0.90;0.40;;;4.00;99.90;;;;;;5068650;28;20176;-60
2023/01/16 07:34:06;;;;;;;0.93;0.50;;;;;;;;;;5069309;28;20204;-60
2023/01/16 07:36:32;;;;;;;2.93;0.40;;;5.00;99.90;;;;;;5071790;28;20168;-60
2023/01/16 07:38:57;;;;;;;2.40;0.60;;;5.10;99.90;;;;;;5067619;28;20196;-60
2023/01/16 07:41:23;;;;;;;0.93;0.30;;;5.10;99.90;;;;;;5071147;28;20211;-60
2023/01/16 07:43:49;;;;;;;0.70;0.40;;;5.10;99.90;;;;;;5071261;28;20216;-60
2023/01/16 07:46:15;;;;;;;1.40;0.40;;;5.10;99.90;;;;;;5071383;28;20172;-60
2023/01/16 07:48:40;;;;;;;0.50;0.40;;;5.20;99.90;;;;;;5071423;28;20168;-60
2023/01/16 07:51:06;;;;;;;0.70;0.30;;;5.10;99.90;;;;;;5071366;28;20180;-60
2023/01/16 07:53:32;;;;;;;2.27;0.40;;;5.10;99.90;;;;;;5070955;28;20172;-61
2023/01/16 07:56:01;;;;;;;0.40;0.40;;;5.40;99.90;;;;;;5071063;28;20219;-61
2023/01/16 07:58:27;;;;;;;1.90;0.40;;;5.20;99.90;;;;;;5071038;28;20173;-61
2023/01/16 08:00:54;;;;;;;1.70;0.37;;;5.10;99.90;;;;;;5068903;28;20192;-64
2023/01/16 08:03:20;;;;;;;0.70;0.40;;;5.00;99.90;;;;;;5070892;28;20608;-54
2023/01/16 08:05:46;;;;;;;0.70;0.30;;;5.10;99.90;;;;;;5068851;28;20184;-58
2023/01/16 08:08:12;;;;;;;0.20;0.20;;;4.90;99.90;;;;;;5070357;28;20169;-57
2023/01/16 08:10:38;;;;;;;0.93;0.20;;;4.90;99.90;;;;;;5071310;28;20196;-57
2023/01/16 08:13:04;;;;;;;1.07;0.50;;;4.90;99.90;;;;;;5070772;28;20180;-57
2023/01/16 08:15:30;;;;;;;0.60;0.40;;;4.90;99.90;;;;;;5070766;28;20341;-57
2023/01/16 08:17:55;;;;;;;1.13;0.60;;;4.90;99.90;;;;;;5070848;28;20212;-58
2023/01/16 08:20:22;;;;;;;0.70;0.50;;;4.50;99.90;;;;;;5070970;28;20243;-59
2023/01/16 08:22:49;;;;;;;0.20;0.20;;;5.00;99.90;;;;;;5071078;28;20225;-59
2023/01/16 08:25:16;;;;;;;0.43;0.30;;;5.00;99.90;;;;;;5070842;28;20285;-58
2023/01/16 08:27:42;;;;;;;1.90;0.40;;;5.00;99.90;;;;;;5064565;28;20200;-58
2023/01/16 08:30:09;;;;;;;0.97;0.50;;;5.00;99.90;;;;;;5039930;28;20318;-59
2023/01/16 08:32:35;;;;;;;0.97;0.30;;;5.10;99.90;;;;;;5050928;28;20173;-59
2023/01/16 08:35:03;;;;;;;1.03;0.40;;;5.10;99.90;;;;;;5065940;28;20204;-59
2023/01/16 08:37:32;;;;;;;0.87;0.30;;;5.10;99.90;;;;;;5070851;28;20175;-58
2023/01/16 08:39:58;;;;;;;0.10;0.10;;;5.20;99.90;;;;;;5070617;28;20173;-59
2023/01/16 08:53:27;;;;;;;1.20;0.20;;;5.30;99.90;;;;;;5070546;28;20622;-58
2023/01/16 08:55:52;;;;;;;0.30;0.30;;;5.30;99.90;;;;;;5070629;28;20169;-59
2023/01/16 08:58:20;;;;;;;0.10;0.10;;;5.60;99.90;;;;;;5069845;28;20234;-59
2023/01/16 09:00:47;;;;;;;0.93;0.37;;;5.30;99.90;;;;;;5070645;28;20638;-59
2023/01/16 09:03:12;;;;;;;0.20;0.13;;;5.40;99.90;;;;;;5069889;28;20183;-59
2023/01/16 09:05:38;;;;;;;0.53;0.30;;;5.60;99.90;;;;;;5069220;28;20303;-59
2023/01/16 09:08:04;;;;;;;0.30;0.27;;;5.50;99.90;;;;;;5070247;28;20222;-62
2023/01/16 09:10:30;;;;;;;0.90;0.30;;;5.60;99.90;;;;;;5070224;28;20676;-63
2023/01/16 09:15:40;;;;;;;1.03;0.40;;;5.70;99.90;;;;;;5070397;28;20191;-61
2023/01/16 09:18:06;;;;;;;0.40;0.20;;;5.80;99.90;;;;;;5070206;28;20224;-62
2023/01/16 09:20:32;;;;;;;0.80;0.30;;;5.70;99.90;;;;;;5069996;28;20172;-62
2023/01/16 09:23:02;;;;;;;1.17;0.30;;;6.00;99.90;;;;;;5064659;28;20631;-60
2023/01/16 09:25:29;;;;;;;0.70;0.30;;;6.00;99.90;;;;;;5054326;28;20224;-61
2023/01/16 09:27:54;;;;;;;2.37;0.57;;;6.10;99.90;;;;;;5051032;28;20192;-61
2023/01/16 09:30:21;;;;;;;0.30;0.20;;;6.20;99.90;;;;;;5065170;28;20181;-61
2023/01/16 09:32:47;;;;;;;0.90;0.33;;;;;;;;;;5069861;28;20642;-62
2023/01/16 09:35:13;;;;;;;1.20;0.30;;;6.60;99.90;;;;;;5068770;28;20172;-61
2023/01/16 09:37:40;;;;;;;0.47;0.20;;;6.70;99.90;;;;;;5074183;28;20246;-60
2023/01/16 09:40:11;;;;;;;1.17;0.23;;;6.60;99.90;;;;;;5073766;28;20267;-62
2023/01/16 09:45:32;;;;;;;0.63;0.37;;;6.80;99.90;;;;;;5073282;28;20223;-62
2023/01/16 09:48:07;;;;;;;0.80;0.20;;;7.40;99.90;;;;;;5072445;28;20651;-62
2023/01/16 09:50:51;;;;;;;2.27;0.30;;;7.00;99.90;;;;;;5073933;28;20168;-62
2023/01/16 09:59:06;;;;;;;0.93;0.33;;;6.90;99.90;;;;;;5070527;28;20233;-63
2023/01/16 10:01:39;;;;;;;2.23;0.30;;;6.80;99.90;;;;;;5055041;28;20199;-62
2023/01/16 10:04:20;;;;;;;2.17;0.40;;;7.00;99.90;;;;;;5053454;28;20291;-60
2023/01/16 10:07:03;;;;;;;2.37;0.40;;;7.10;99.90;;;;;;5072209;28;20192;-60
2023/01/16 10:09:50;;;;;;;1.87;0.40;;;7.00;99.90;;;;;;5073638;28;20169;-59
2023/01/16 10:12:15;;;;;;;1.00;0.40;;;6.90;99.90;;;;;;5071510;28;20184;-60
2023/01/16 10:15:03;;;;;;;1.50;0.33;;;6.50;99.90;;;;;;5055444;28;20233;-57
2023/01/16 10:17:32;;;;;;;0.40;0.40;;;6.50;99.90;;;;;;5072293;28;20212;-57
2023/01/16 10:20:27;;;;;;;4.57;2.27;;;6.60;99.90;;;;;;5049502;28;20236;-57
2023/01/16 10:23:11;;;;;;;3.33;1.93;;;6.60;99.90;;;;;;5069094;28;20275;-57
2023/01/16 10:25:46;;;;;;;1.07;0.80;;;6.50;99.90;;;;;;5073193;28;20334;-57
2023/01/16 10:28:35;;;;;;;1.33;0.87;;;6.30;99.90;;;;;;5072762;28;20179;-57
2023/01/16 10:31:11;;;;;;;1.67;1.30;;;6.50;99.90;;;;;;5072650;28;20172;-58
2023/01/16 10:33:57;;;;;;;4.03;0.80;;;6.50;99.90;;;;;;5072567;28;20741;-57
2023/01/16 10:36:30;;;;;;;1.40;0.70;;;6.50;99.90;;;;;;5072885;28;20176;-58
2023/01/16 10:38:58;;;;;;;2.87;0.80;;;6.60;99.90;;;;;;5072296;28;20243;-57
2023/01/16 10:50:22;;;;;;;3.03;1.03;;;6.40;99.90;;;;;;5073073;28;20208;-57
2023/01/16 10:52:48;;;;;;;3.70;1.00;;;6.30;99.90;;;;;;5072987;28;20172;-57
2023/01/16 10:55:15;;;;;;;2.63;0.73;;;6.10;99.90;;;;;;5071530;28;20271;-57
2023/01/16 10:57:52;;;;;;;2.20;0.63;;;6.30;99.90;;;;;;5070966;28;20227;-57
2023/01/16 11:00:29;;;;;;;2.67;0.80;;;6.60;99.90;;;;;;5069279;28;20572;-57
2023/01/16 11:03:00;;;;;;;3.40;0.90;;;6.30;99.90;;;;;;5070645;28;20167;-59
2023/01/16 11:05:31;;;;;;;1.73;0.90;;;6.60;99.90;;;;;;5070458;28;20234;-57
2023/01/16 11:08:18;;;;;;;2.40;0.87;;;6.30;99.90;;;;;;5070369;28;20196;-57
2023/01/16 11:10:49;;;;;;;6.63;1.13;;;6.50;99.90;;;;;;5070909;28;20183;-57
2023/01/16 11:19:22;;;;;;;3.77;1.40;;;6.70;99.90;;;;;;5068441;28;20199;-57
2023/01/16 11:22:09;;;;;;;4.77;1.20;;;6.90;99.90;;;;;;5054235;28;20169;-57
2023/01/16 11:24:39;;;;;;;4.17;1.23;;;6.90;99.90;;;;;;5072097;28;20220;-58
2023/01/16 11:27:13;;;;;;;2.93;1.00;;;7.10;99.90;;;;;;5072242;28;20196;-58
2023/01/16 11:29:42;;;;;;;1.93;0.87;;;7.20;99.90;;;;;;5072239;28;20277;-57
2023/01/16 11:32:11;;;;;;;4.30;0.73;;;7.20;99.90;;;;;;5072124;28;20627;-57
2023/01/16 11:34:39;;;;;;;3.17;1.10;;;7.10;99.90;;;;;;5072062;28;20160;-57
2023/01/16 11:37:06;;;;;;;2.40;0.60;;;7.40;99.90;;;;;;5071922;28;20165;-58
2023/01/16 11:39:35;;;;;;;2.03;0.67;;;7.00;99.90;;;;;;5071557;28;20249;-57
2023/01/16 11:47:42;;;;;;;4.20;0.63;;;6.80;99.90;;;;;;5071932;28;20488;-57
2023/01/16 11:50:32;;;;;;;0.70;0.47;;;7.00;99.90;;;;;;5071612;28;20184;-58
2023/01/16 11:52:57;;;;;;;1.53;0.53;;;7.10;99.90;;;;;;5071664;28;20651;-57
2023/01/16 11:55:39;;;;;;;3.83;0.87;;;7.30;99.90;;;;;;5071409;28;20260;-58
2023/01/16 11:58:17;;;;;;;1.40;0.57;;;7.00;99.90;;;;;;5071149;28;20232;-58
2023/01/16 12:00:47;;;;;;;3.93;0.60;;;7.20;99.90;;;;;;5071374;28;20306;-57
2023/01/16 12:03:56;;;;;;;5.87;0.50;;;7.10;99.90;;;;;;5071563;28;20167;-58
2023/01/16 12:06:39;;;;;;;0.47;0.27;;;7.20;99.90;;;;;;5044981;28;20199;-58
2023/01/16 12:09:25;;;;;;;4.10;0.50;;;7.00;99.90;;;;;;5071404;28;20241;-57
2023/01/16 12:11:53;;;;;;;1.17;0.30;;;7.20;99.90;;;;;;5071334;28;20164;-57
2023/01/16 12:14:45;;;;;;;1.10;0.40;;;7.20;99.90;;;;;;5071207;28;20173;-57
2023/01/16 12:17:21;;;;;;;1.17;0.50;;;9.70;99.90;;;;;;5068888;28;20208;-58
2023/01/16 12:20:08;;;;;;;2.63;0.53;;;9.70;99.90;;;;;;5070871;28;20180;-58
2023/01/16 12:22:42;;;;;;;2.63;0.70;;;15.00;99.90;;;;;;5052975;28;20271;-58
2023/01/16 12:25:41;;;;;;;2.53;0.60;;;18.00;99.90;;;;;;5053168;28;20559;-59
2023/01/16 12:28:32;;;;;;;2.67;0.60;;;16.10;99.90;;;;;;5071170;28;20165;-58
2023/01/16 12:31:26;;;;;;;3.08;0.50;;;16.20;99.90;;;;;;5070886;28;20275;-58
2023/01/16 12:34:15;;;;;;;2.08;0.40;;;16.10;99.90;;;;;;5070957;28;20176;-61
2023/01/16 12:37:00;;;;;;;3.75;0.50;;;18.30;99.90;;;;;;5064711;28;20184;-61
2023/01/16 12:39:40;;;;;;;3.58;0.80;;;19.90;95.80;;;;;;5069097;28;20184;-59
2023/01/16 12:45:39;;;;;;;2.75;0.60;;;16.10;45.20;;;;;;5050710;28;20220;-59
2023/01/16 12:48:23;;;;;;;7.32;0.82;;;16.30;51.70;;;;;;5050692;28;20239;-61
2023/01/16 12:50:55;;;;;;;2.05;0.40;;;15.80;69.70;;;;;;5050935;28;20177;-61
2023/01/16 12:53:51;;;;;;;1.92;0.57;;;15.20;69.50;;;;;;5050642;28;20173;-61
2023/01/16 12:56:17;;;;;;;6.43;0.57;;;19.20;71.40;;;;;;5050831;28;20165;-61
2023/01/16 12:58:49;;;;;;;4.70;0.98;;;19.80;58.80;;;;;;5050612;28;20640;-60
2023/01/16 13:01:26;;;;;;;4.43;0.98;;;20.20;47.90;;;;;;5051035;28;20196;-60
2023/01/16 13:04:17;;;;;;;4.65;1.15;;;20.60;32.70;;;;;;5053309;28;22155;-61
2023/01/16 13:06:47;;;;;;;3.67;0.60;;;20.90;33.00;;;;;;5068602;28;20267;-61
2023/01/16 13:09:36;;;;;;;4.65;1.00;;;21.70;36.60;;;;;;5066995;28;20181;-61
2023/01/16 13:15:09;;;;;;;1.55;0.45;;;19.80;18.30;;;;;;5050534;28;20732;-61
2023/01/16 13:18:13;;;;;;;3.92;0.50;;;17.10;18.80;;;;;;5033491;28;20291;-61
2023/01/16 13:20:39;;;;;;;8.05;0.55;;;18.40;20.00;;;;;;4969009;28;20252;-61
2023/01/16 13:23:21;;;;;;;2.45;0.50;;;18.90;15.10;;;;;;5035958;28;20177;-61
2023/01/16 13:25:59;;;;;;;3.58;0.40;;;18.50;14.50;;;;;;5064454;28;20208;-61
2023/01/16 13:28:31;;;;;;;1.73;0.50;;;18.70;18.40;;;;;;5069831;28;20165;-60
2023/01/16 13:31:02;;;;;;;3.42;0.50;;;18.90;11.80;;;;;;5069964;28;20639;-60
2023/01/16 13:33:32;;;;;;;2.45;0.47;;;19.00;14.80;;;;;;5050513;28;20181;-61
2023/01/16 13:36:28;;;;;;;4.57;0.60;;;19.60;10.70;;;;;;5069391;28;20256;-61
2023/01/16 13:39:29;;;;;;;2.78;0.38;;;19.10;3.30;;;;;;5050297;28;20188;-60
2023/01/16 13:41:57;;;;;;;2.47;0.65;;;19.70;3.20;;;;;;5050406;28;20172;-60
2023/01/16 13:47:38;;;;;;;2.55;0.65;;;20.20;5.40;;;;;;5069042;28;20543;-61
2023/01/16 13:50:37;;;;;;;1.75;0.45;;;20.30;3.70;;;;;;5070193;28;20530;-61
2023/01/16 13:53:07;;;;;;;1.95;0.40;;;19.60;1.00;;;;;;5009815;28;20184;-60
2023/01/16 13:55:43;;;;;;;3.47;0.70;;;17.40;1.00;;;;;;5069114;28;20180;-60
2023/01/16 13:58:23;;;;;;;3.55;0.68;;;14.60;1.00;;;;;;5058187;28;20175;-60
2023/01/16 14:01:03;;;;;;;1.63;0.60;;;14.60;1.00;;;;;;5067327;28;20215;-61
2023/01/16 14:03:31;;;;;;;1.90;0.32;;;13.30;1.00;;;;;;5058654;28;20651;-60
2023/01/16 14:06:20;;;;;;;2.60;0.70;;;14.60;1.00;;;;;;5062400;28;20224;-60
2023/01/16 14:09:04;;;;;;;4.47;0.60;;;14.80;1.00;;;;;;5053502;28;20234;-60
2023/01/16 14:11:47;;;;;;;2.95;0.68;;;15.80;1.00;;;;;;5068660;28;20599;-60
2023/01/16 14:17:17;;;;;;;2.30;0.65;;;18.00;1.00;;;;;;5069601;28;20223;-60
2023/01/16 14:19:52;;;;;;;4.88;0.60;;;17.20;1.00;;;;;;5069720;28;20653;-60
2023/01/16 14:24:52;;;;;;;3.05;0.65;;;16.30;1.00;;;;;;5073402;28;20277;-60
2023/01/16 14:27:31;;;;;;;3.00;0.70;;;14.80;1.00;;;;;;5073487;28;20173;-60
2023/01/16 14:30:02;;;;;;;4.28;0.60;;;13.30;1.00;;;;;;5052076;28;20181;-60